sensor_id;sensor_type;location;lat;lon;timestamp;P1;durP1;ratioP1;P2;durP2;ratioP2
17175;SDS011;8703;48.996;9.594;2023-03-21T00:00:07;3.97;;;2.17;;
17175;SDS011;8703;48.996;9.594;2023-03-21T00:02:36;3.20;;;1.90;;
17175;SDS011;8703;48.996;9.594;2023-03-21T00:05:04;2.70;;;2.00;;
17175;SDS011;8703;48.996;9.594;2023-03-21T00:07:32;3.20;;;2.50;;
17175;SDS011;8703;48.996;9.594;2023-03-21T00:09:59;3.57;;;2.40;;
17175;SDS011;8703;48.996;9.594;2023-03-21T00:12:26;2.73;;;2.00;;
17175;SDS011;8703;48.996;9.594;2023-03-21T00:14:56;4.73;;;2.33;;
17175;SDS011;8703;48.996;9.594;2023-03-21T00:17:29;4.27;;;2.17;;
17175;SDS011;8703;48.996;9.594;2023-03-21T00:19:57;4.60;;;2.57;;
17175;SDS011;8703;48.996;9.594;2023-03-21T00:22:24;4.63;;;2.07;;
17175;SDS011;8703;48.996;9.594;2023-03-21T00:24:52;3.50;;;2.13;;
17175;SDS011;8703;48.996;9.594;2023-03-21T00:27:19;5.20;;;3.10;;
17175;SDS011;8703;48.996;9.594;2023-03-21T00:29:47;9.23;;;3.30;;
17175;SDS011;8703;48.996;9.594;2023-03-21T00:32:14;4.60;;;2.90;;
17175;SDS011;8703;48.996;9.594;2023-03-21T00:34:43;6.70;;;3.10;;
17175;SDS011;8703;48.996;9.594;2023-03-21T00:37:11;4.33;;;2.43;;
17175;SDS011;8703;48.996;9.594;2023-03-21T00:39:40;4.23;;;2.40;;
17175;SDS011;8703;48.996;9.594;2023-03-21T00:42:11;3.93;;;2.30;;
17175;SDS011;8703;48.996;9.594;2023-03-21T00:44:38;3.77;;;1.97;;
17175;SDS011;8703;48.996;9.594;2023-03-21T00:47:07;5.47;;;2.27;;
17175;SDS011;8703;48.996;9.594;2023-03-21T00:49:35;4.93;;;2.30;;
17175;SDS011;8703;48.996;9.594;2023-03-21T00:52:04;2.60;;;2.10;;
17175;SDS011;8703;48.996;9.594;2023-03-21T00:54:33;3.27;;;1.90;;
17175;SDS011;8703;48.996;9.594;2023-03-21T00:57:01;4.23;;;2.50;;
17175;SDS011;8703;48.996;9.594;2023-03-21T01:02:52;6.60;;;3.70;;
17175;SDS011;8703;48.996;9.594;2023-03-21T01:05:29;8.17;;;5.20;;
17175;SDS011;8703;48.996;9.594;2023-03-21T01:08:18;5.13;;;3.57;;
17175;SDS011;8703;48.996;9.594;2023-03-21T01:10:47;4.37;;;3.37;;
17175;SDS011;8703;48.996;9.594;2023-03-21T01:13:16;6.50;;;3.30;;
17175;SDS011;8703;48.996;9.594;2023-03-21T01:15:45;4.67;;;3.03;;
17175;SDS011;8703;48.996;9.594;2023-03-21T01:18:15;4.87;;;2.73;;
17175;SDS011;8703;48.996;9.594;2023-03-21T01:20:44;3.57;;;2.47;;
17175;SDS011;8703;48.996;9.594;2023-03-21T01:23:13;6.47;;;4.03;;
17175;SDS011;8703;48.996;9.594;2023-03-21T01:25:42;10.20;;;5.93;;
17175;SDS011;8703;48.996;9.594;2023-03-21T01:28:09;9.30;;;6.10;;
17175;SDS011;8703;48.996;9.594;2023-03-21T01:30:37;5.73;;;3.90;;
17175;SDS011;8703;48.996;9.594;2023-03-21T01:33:04;5.17;;;3.20;;
17175;SDS011;8703;48.996;9.594;2023-03-21T01:35:31;4.50;;;2.50;;
17175;SDS011;8703;48.996;9.594;2023-03-21T01:38:01;4.50;;;2.80;;
17175;SDS011;8703;48.996;9.594;2023-03-21T01:40:28;6.23;;;2.60;;
17175;SDS011;8703;48.996;9.594;2023-03-21T01:42:57;4.90;;;2.70;;
17175;SDS011;8703;48.996;9.594;2023-03-21T01:48:30;5.17;;;2.40;;
17175;SDS011;8703;48.996;9.594;2023-03-21T01:50:57;3.83;;;2.40;;
17175;SDS011;8703;48.996;9.594;2023-03-21T01:53:26;5.23;;;2.50;;
17175;SDS011;8703;48.996;9.594;2023-03-21T01:55:55;5.30;;;2.50;;
17175;SDS011;8703;48.996;9.594;2023-03-21T01:58:24;6.23;;;2.60;;
17175;SDS011;8703;48.996;9.594;2023-03-21T02:00:52;3.83;;;2.50;;
17175;SDS011;8703;48.996;9.594;2023-03-21T02:03:20;4.47;;;2.50;;
17175;SDS011;8703;48.996;9.594;2023-03-21T02:05:50;6.93;;;2.50;;
17175;SDS011;8703;48.996;9.594;2023-03-21T02:08:19;3.83;;;2.20;;
17175;SDS011;8703;48.996;9.594;2023-03-21T02:10:47;4.70;;;2.30;;
17175;SDS011;8703;48.996;9.594;2023-03-21T02:13:15;3.87;;;2.30;;
17175;SDS011;8703;48.996;9.594;2023-03-21T02:15:45;4.47;;;2.53;;
17175;SDS011;8703;48.996;9.594;2023-03-21T02:18:21;5.17;;;2.73;;
17175;SDS011;8703;48.996;9.594;2023-03-21T02:21:08;4.93;;;2.40;;
17175;SDS011;8703;48.996;9.594;2023-03-21T02:24:02;2.93;;;2.40;;
17175;SDS011;8703;48.996;9.594;2023-03-21T02:26:38;3.93;;;2.17;;
17175;SDS011;8703;48.996;9.594;2023-03-21T02:29:22;3.60;;;2.27;;
17175;SDS011;8703;48.996;9.594;2023-03-21T02:32:05;5.10;;;2.60;;
17175;SDS011;8703;48.996;9.594;2023-03-21T02:34:50;4.90;;;2.57;;
17175;SDS011;8703;48.996;9.594;2023-03-21T02:37:29;5.80;;;2.40;;
17175;SDS011;8703;48.996;9.594;2023-03-21T02:40:00;3.77;;;2.50;;
17175;SDS011;8703;48.996;9.594;2023-03-21T02:42:36;3.37;;;2.50;;
17175;SDS011;8703;48.996;9.594;2023-03-21T02:45:15;5.33;;;2.90;;
17175;SDS011;8703;48.996;9.594;2023-03-21T02:47:45;4.50;;;2.80;;
17175;SDS011;8703;48.996;9.594;2023-03-21T02:50:17;4.50;;;2.60;;
17175;SDS011;8703;48.996;9.594;2023-03-21T02:52:49;4.57;;;2.47;;
17175;SDS011;8703;48.996;9.594;2023-03-21T02:55:19;5.37;;;2.73;;
17175;SDS011;8703;48.996;9.594;2023-03-21T02:57:50;3.40;;;2.40;;
17175;SDS011;8703;48.996;9.594;2023-03-21T03:00:19;5.03;;;2.90;;
17175;SDS011;8703;48.996;9.594;2023-03-21T03:02:48;4.47;;;2.60;;
17175;SDS011;8703;48.996;9.594;2023-03-21T03:05:17;4.83;;;2.53;;
17175;SDS011;8703;48.996;9.594;2023-03-21T03:07:51;4.73;;;2.40;;
17175;SDS011;8703;48.996;9.594;2023-03-21T03:10:30;5.20;;;2.67;;
17175;SDS011;8703;48.996;9.594;2023-03-21T03:13:04;3.63;;;2.80;;
17175;SDS011;8703;48.996;9.594;2023-03-21T03:15:39;7.33;;;2.80;;
17175;SDS011;8703;48.996;9.594;2023-03-21T03:18:12;4.17;;;2.50;;
17175;SDS011;8703;48.996;9.594;2023-03-21T03:20:46;3.60;;;2.37;;
17175;SDS011;8703;48.996;9.594;2023-03-21T03:23:20;5.00;;;2.50;;
17175;SDS011;8703;48.996;9.594;2023-03-21T03:25:52;4.23;;;2.33;;
17175;SDS011;8703;48.996;9.594;2023-03-21T03:28:24;3.20;;;2.37;;
17175;SDS011;8703;48.996;9.594;2023-03-21T03:30:53;5.50;;;2.93;;
17175;SDS011;8703;48.996;9.594;2023-03-21T03:33:21;3.70;;;2.40;;
17175;SDS011;8703;48.996;9.594;2023-03-21T03:35:50;4.07;;;2.77;;
17175;SDS011;8703;48.996;9.594;2023-03-21T03:38:20;3.63;;;2.40;;
17175;SDS011;8703;48.996;9.594;2023-03-21T03:40:48;3.23;;;2.20;;
17175;SDS011;8703;48.996;9.594;2023-03-21T03:43:20;5.80;;;2.43;;
17175;SDS011;8703;48.996;9.594;2023-03-21T03:45:51;4.27;;;2.43;;
17175;SDS011;8703;48.996;9.594;2023-03-21T03:48:22;3.40;;;2.83;;
17175;SDS011;8703;48.996;9.594;2023-03-21T03:50:52;4.87;;;2.90;;
17175;SDS011;8703;48.996;9.594;2023-03-21T03:53:24;4.77;;;2.80;;
17175;SDS011;8703;48.996;9.594;2023-03-21T03:55:53;5.87;;;3.90;;
17175;SDS011;8703;48.996;9.594;2023-03-21T03:58:23;9.07;;;5.80;;
17175;SDS011;8703;48.996;9.594;2023-03-21T04:00:52;11.43;;;8.27;;
17175;SDS011;8703;48.996;9.594;2023-03-21T04:03:20;9.50;;;6.03;;
17175;SDS011;8703;48.996;9.594;2023-03-21T04:05:47;5.13;;;2.60;;
17175;SDS011;8703;48.996;9.594;2023-03-21T04:08:15;4.40;;;2.80;;
17175;SDS011;8703;48.996;9.594;2023-03-21T04:10:44;3.53;;;2.47;;
17175;SDS011;8703;48.996;9.594;2023-03-21T04:13:11;3.60;;;2.43;;
17175;SDS011;8703;48.996;9.594;2023-03-21T04:15:38;4.93;;;2.57;;
17175;SDS011;8703;48.996;9.594;2023-03-21T04:18:06;3.80;;;2.50;;
17175;SDS011;8703;48.996;9.594;2023-03-21T04:20:33;5.27;;;3.20;;
17175;SDS011;8703;48.996;9.594;2023-03-21T04:23:00;5.23;;;2.50;;
17175;SDS011;8703;48.996;9.594;2023-03-21T04:25:28;3.60;;;2.87;;
17175;SDS011;8703;48.996;9.594;2023-03-21T04:27:56;6.20;;;2.83;;
17175;SDS011;8703;48.996;9.594;2023-03-21T04:30:24;6.50;;;3.03;;
17175;SDS011;8703;48.996;9.594;2023-03-21T04:32:51;4.30;;;2.87;;
17175;SDS011;8703;48.996;9.594;2023-03-21T04:35:21;3.77;;;2.53;;
17175;SDS011;8703;48.996;9.594;2023-03-21T04:37:49;4.03;;;3.20;;
17175;SDS011;8703;48.996;9.594;2023-03-21T04:40:17;4.43;;;3.00;;
17175;SDS011;8703;48.996;9.594;2023-03-21T04:42:45;4.57;;;3.30;;
17175;SDS011;8703;48.996;9.594;2023-03-21T04:45:15;5.90;;;3.90;;
17175;SDS011;8703;48.996;9.594;2023-03-21T04:47:42;6.03;;;3.57;;
17175;SDS011;8703;48.996;9.594;2023-03-21T04:50:10;3.80;;;2.90;;
17175;SDS011;8703;48.996;9.594;2023-03-21T04:52:38;4.63;;;2.60;;
17175;SDS011;8703;48.996;9.594;2023-03-21T04:55:05;4.93;;;3.47;;
17175;SDS011;8703;48.996;9.594;2023-03-21T04:57:34;4.70;;;3.20;;
17175;SDS011;8703;48.996;9.594;2023-03-21T05:00:02;4.73;;;2.97;;
17175;SDS011;8703;48.996;9.594;2023-03-21T05:02:35;5.83;;;3.17;;
17175;SDS011;8703;48.996;9.594;2023-03-21T05:05:03;4.50;;;2.83;;
17175;SDS011;8703;48.996;9.594;2023-03-21T05:07:35;4.27;;;2.90;;
17175;SDS011;8703;48.996;9.594;2023-03-21T05:10:03;5.03;;;2.93;;
17175;SDS011;8703;48.996;9.594;2023-03-21T05:12:31;4.10;;;3.13;;
17175;SDS011;8703;48.996;9.594;2023-03-21T05:14:59;4.37;;;2.80;;
17175;SDS011;8703;48.996;9.594;2023-03-21T05:17:26;4.63;;;3.43;;
17175;SDS011;8703;48.996;9.594;2023-03-21T05:19:55;4.47;;;3.20;;
17175;SDS011;8703;48.996;9.594;2023-03-21T05:22:23;4.03;;;2.80;;
17175;SDS011;8703;48.996;9.594;2023-03-21T05:24:53;5.80;;;2.97;;
17175;SDS011;8703;48.996;9.594;2023-03-21T05:27:21;5.50;;;2.70;;
17175;SDS011;8703;48.996;9.594;2023-03-21T05:30:01;5.57;;;2.87;;
17175;SDS011;8703;48.996;9.594;2023-03-21T05:32:30;4.50;;;2.80;;
17175;SDS011;8703;48.996;9.594;2023-03-21T05:34:59;3.63;;;2.80;;
17175;SDS011;8703;48.996;9.594;2023-03-21T05:37:27;5.50;;;3.20;;
17175;SDS011;8703;48.996;9.594;2023-03-21T05:39:54;5.67;;;3.70;;
17175;SDS011;8703;48.996;9.594;2023-03-21T05:42:22;6.50;;;5.67;;
17175;SDS011;8703;48.996;9.594;2023-03-21T05:44:50;6.60;;;3.37;;
17175;SDS011;8703;48.996;9.594;2023-03-21T05:47:17;7.70;;;3.70;;
17175;SDS011;8703;48.996;9.594;2023-03-21T05:49:45;4.87;;;3.10;;
17175;SDS011;8703;48.996;9.594;2023-03-21T05:52:14;5.93;;;3.00;;
17175;SDS011;8703;48.996;9.594;2023-03-21T05:54:41;4.77;;;2.63;;
17175;SDS011;8703;48.996;9.594;2023-03-21T05:57:09;6.17;;;2.80;;
17175;SDS011;8703;48.996;9.594;2023-03-21T05:59:36;5.57;;;3.67;;
17175;SDS011;8703;48.996;9.594;2023-03-21T06:02:04;4.13;;;3.20;;
17175;SDS011;8703;48.996;9.594;2023-03-21T06:04:31;4.57;;;3.00;;
17175;SDS011;8703;48.996;9.594;2023-03-21T06:06:59;6.27;;;2.90;;
17175;SDS011;8703;48.996;9.594;2023-03-21T06:09:28;3.30;;;3.00;;
17175;SDS011;8703;48.996;9.594;2023-03-21T06:11:56;4.33;;;3.17;;
17175;SDS011;8703;48.996;9.594;2023-03-21T06:14:23;8.00;;;4.40;;
17175;SDS011;8703;48.996;9.594;2023-03-21T06:16:51;24.10;;;10.30;;
17175;SDS011;8703;48.996;9.594;2023-03-21T06:19:18;5.20;;;3.30;;
17175;SDS011;8703;48.996;9.594;2023-03-21T06:21:46;5.00;;;2.53;;
17175;SDS011;8703;48.996;9.594;2023-03-21T06:24:14;3.50;;;2.33;;
17175;SDS011;8703;48.996;9.594;2023-03-21T06:26:44;5.23;;;2.83;;
17175;SDS011;8703;48.996;9.594;2023-03-21T06:29:12;3.30;;;2.67;;
17175;SDS011;8703;48.996;9.594;2023-03-21T06:31:39;5.70;;;3.03;;
17175;SDS011;8703;48.996;9.594;2023-03-21T06:34:07;4.10;;;2.70;;
17175;SDS011;8703;48.996;9.594;2023-03-21T06:36:35;6.03;;;2.80;;
17175;SDS011;8703;48.996;9.594;2023-03-21T06:39:03;3.90;;;2.40;;
17175;SDS011;8703;48.996;9.594;2023-03-21T06:41:31;3.87;;;2.70;;
17175;SDS011;8703;48.996;9.594;2023-03-21T06:43:59;3.50;;;2.53;;
17175;SDS011;8703;48.996;9.594;2023-03-21T06:46:27;4.47;;;2.57;;
17175;SDS011;8703;48.996;9.594;2023-03-21T06:48:54;5.63;;;2.63;;
17175;SDS011;8703;48.996;9.594;2023-03-21T06:51:22;3.30;;;2.80;;
17175;SDS011;8703;48.996;9.594;2023-03-21T06:53:49;6.67;;;3.70;;
17175;SDS011;8703;48.996;9.594;2023-03-21T06:56:16;5.20;;;4.30;;
17175;SDS011;8703;48.996;9.594;2023-03-21T06:58:44;7.53;;;4.60;;
17175;SDS011;8703;48.996;9.594;2023-03-21T07:01:13;7.33;;;4.53;;
17175;SDS011;8703;48.996;9.594;2023-03-21T07:03:40;6.40;;;4.70;;
17175;SDS011;8703;48.996;9.594;2023-03-21T07:06:08;8.50;;;5.17;;
17175;SDS011;8703;48.996;9.594;2023-03-21T07:08:37;7.77;;;4.60;;
17175;SDS011;8703;48.996;9.594;2023-03-21T07:11:05;9.17;;;4.67;;
17175;SDS011;8703;48.996;9.594;2023-03-21T07:13:33;8.23;;;4.30;;
17175;SDS011;8703;48.996;9.594;2023-03-21T07:16:00;6.47;;;4.00;;
17175;SDS011;8703;48.996;9.594;2023-03-21T07:18:29;9.90;;;4.53;;
17175;SDS011;8703;48.996;9.594;2023-03-21T07:20:57;7.93;;;5.30;;
17175;SDS011;8703;48.996;9.594;2023-03-21T07:23:24;6.10;;;4.10;;
17175;SDS011;8703;48.996;9.594;2023-03-21T07:25:52;5.93;;;3.93;;
17175;SDS011;8703;48.996;9.594;2023-03-21T07:28:20;5.23;;;3.90;;
17175;SDS011;8703;48.996;9.594;2023-03-21T07:30:51;6.80;;;3.43;;
17175;SDS011;8703;48.996;9.594;2023-03-21T07:33:19;6.27;;;3.60;;
17175;SDS011;8703;48.996;9.594;2023-03-21T07:35:48;10.60;;;7.80;;
17175;SDS011;8703;48.996;9.594;2023-03-21T07:38:16;10.93;;;6.90;;
17175;SDS011;8703;48.996;9.594;2023-03-21T07:40:44;9.47;;;7.17;;
17175;SDS011;8703;48.996;9.594;2023-03-21T07:43:11;9.57;;;6.53;;
17175;SDS011;8703;48.996;9.594;2023-03-21T07:45:39;8.40;;;5.20;;
17175;SDS011;8703;48.996;9.594;2023-03-21T07:48:07;10.00;;;5.73;;
17175;SDS011;8703;48.996;9.594;2023-03-21T07:50:34;6.27;;;4.13;;
17175;SDS011;8703;48.996;9.594;2023-03-21T07:53:03;6.03;;;3.80;;
17175;SDS011;8703;48.996;9.594;2023-03-21T07:55:31;5.43;;;4.00;;
17175;SDS011;8703;48.996;9.594;2023-03-21T07:57:58;4.07;;;3.13;;
17175;SDS011;8703;48.996;9.594;2023-03-21T08:00:26;5.93;;;3.13;;
17175;SDS011;8703;48.996;9.594;2023-03-21T08:02:54;5.70;;;3.63;;
17175;SDS011;8703;48.996;9.594;2023-03-21T08:05:22;5.33;;;3.50;;
17175;SDS011;8703;48.996;9.594;2023-03-21T08:07:51;3.60;;;3.23;;
17175;SDS011;8703;48.996;9.594;2023-03-21T08:10:20;5.47;;;3.13;;
17175;SDS011;8703;48.996;9.594;2023-03-21T08:12:47;4.40;;;3.10;;
17175;SDS011;8703;48.996;9.594;2023-03-21T08:15:15;6.67;;;3.37;;
17175;SDS011;8703;48.996;9.594;2023-03-21T08:17:42;6.10;;;3.00;;
17175;SDS011;8703;48.996;9.594;2023-03-21T08:20:11;3.53;;;2.80;;
17175;SDS011;8703;48.996;9.594;2023-03-21T08:22:40;5.87;;;2.70;;
17175;SDS011;8703;48.996;9.594;2023-03-21T08:25:08;10.57;;;2.90;;
17175;SDS011;8703;48.996;9.594;2023-03-21T08:27:39;3.53;;;2.57;;
17175;SDS011;8703;48.996;9.594;2023-03-21T08:30:07;5.43;;;2.70;;
17175;SDS011;8703;48.996;9.594;2023-03-21T08:32:36;3.30;;;2.50;;
17175;SDS011;8703;48.996;9.594;2023-03-21T08:35:04;2.97;;;2.17;;
17175;SDS011;8703;48.996;9.594;2023-03-21T08:37:34;5.73;;;2.27;;
17175;SDS011;8703;48.996;9.594;2023-03-21T08:40:01;3.40;;;2.40;;
17175;SDS011;8703;48.996;9.594;2023-03-21T08:42:32;4.60;;;2.70;;
17175;SDS011;8703;48.996;9.594;2023-03-21T08:45:00;4.03;;;2.30;;
17175;SDS011;8703;48.996;9.594;2023-03-21T08:47:29;2.90;;;1.90;;
17175;SDS011;8703;48.996;9.594;2023-03-21T08:49:56;2.73;;;1.93;;
17175;SDS011;8703;48.996;9.594;2023-03-21T08:52:24;2.87;;;1.67;;
17175;SDS011;8703;48.996;9.594;2023-03-21T08:54:52;3.67;;;2.10;;
17175;SDS011;8703;48.996;9.594;2023-03-21T08:57:19;2.97;;;1.90;;
17175;SDS011;8703;48.996;9.594;2023-03-21T08:59:46;2.77;;;2.07;;
17175;SDS011;8703;48.996;9.594;2023-03-21T09:02:16;2.70;;;2.00;;
17175;SDS011;8703;48.996;9.594;2023-03-21T09:04:43;2.87;;;2.00;;
17175;SDS011;8703;48.996;9.594;2023-03-21T09:07:11;4.17;;;1.87;;
17175;SDS011;8703;48.996;9.594;2023-03-21T09:09:42;1.93;;;1.73;;
17175;SDS011;8703;48.996;9.594;2023-03-21T09:12:09;2.80;;;2.10;;
17175;SDS011;8703;48.996;9.594;2023-03-21T09:14:37;3.07;;;1.80;;
17175;SDS011;8703;48.996;9.594;2023-03-21T09:17:05;2.43;;;1.60;;
17175;SDS011;8703;48.996;9.594;2023-03-21T09:19:33;2.77;;;1.70;;
17175;SDS011;8703;48.996;9.594;2023-03-21T09:22:02;2.50;;;1.70;;
17175;SDS011;8703;48.996;9.594;2023-03-21T09:24:35;3.40;;;1.90;;
17175;SDS011;8703;48.996;9.594;2023-03-21T09:27:02;2.97;;;1.70;;
17175;SDS011;8703;48.996;9.594;2023-03-21T09:29:29;2.50;;;1.50;;
17175;SDS011;8703;48.996;9.594;2023-03-21T09:31:57;2.63;;;1.60;;
17175;SDS011;8703;48.996;9.594;2023-03-21T09:34:25;4.07;;;1.50;;
17175;SDS011;8703;48.996;9.594;2023-03-21T09:36:54;2.47;;;1.50;;
17175;SDS011;8703;48.996;9.594;2023-03-21T09:39:22;3.90;;;1.40;;
17175;SDS011;8703;48.996;9.594;2023-03-21T09:41:56;2.10;;;1.47;;
17175;SDS011;8703;48.996;9.594;2023-03-21T09:44:40;2.40;;;1.20;;
17175;SDS011;8703;48.996;9.594;2023-03-21T09:47:14;1.67;;;1.20;;
17175;SDS011;8703;48.996;9.594;2023-03-21T09:49:46;1.53;;;1.13;;
17175;SDS011;8703;48.996;9.594;2023-03-21T09:52:17;1.93;;;1.37;;
17175;SDS011;8703;48.996;9.594;2023-03-21T09:54:48;2.23;;;1.53;;
17175;SDS011;8703;48.996;9.594;2023-03-21T09:57:19;3.97;;;1.60;;
17175;SDS011;8703;48.996;9.594;2023-03-21T09:59:56;2.50;;;1.30;;
17175;SDS011;8703;48.996;9.594;2023-03-21T10:02:33;1.37;;;1.20;;
17175;SDS011;8703;48.996;9.594;2023-03-21T10:05:16;2.60;;;1.40;;
17175;SDS011;8703;48.996;9.594;2023-03-21T10:07:48;2.37;;;1.40;;
17175;SDS011;8703;48.996;9.594;2023-03-21T10:10:20;1.50;;;1.40;;
17175;SDS011;8703;48.996;9.594;2023-03-21T10:12:50;1.43;;;1.30;;
17175;SDS011;8703;48.996;9.594;2023-03-21T10:15:20;1.83;;;1.27;;
17175;SDS011;8703;48.996;9.594;2023-03-21T10:17:51;2.40;;;1.60;;
17175;SDS011;8703;48.996;9.594;2023-03-21T10:20:22;2.72;;;1.80;;
17175;SDS011;8703;48.996;9.594;2023-03-21T10:22:52;5.40;;;1.60;;
17175;SDS011;8703;48.996;9.594;2023-03-21T10:25:22;2.88;;;1.38;;
17175;SDS011;8703;48.996;9.594;2023-03-21T10:27:51;2.08;;;1.52;;
17175;SDS011;8703;48.996;9.594;2023-03-21T10:30:23;5.45;;;1.52;;
17175;SDS011;8703;48.996;9.594;2023-03-21T10:32:55;4.60;;;1.70;;
17175;SDS011;8703;48.996;9.594;2023-03-21T10:35:26;1.60;;;1.40;;
17175;SDS011;8703;48.996;9.594;2023-03-21T10:37:56;1.67;;;1.27;;
17175;SDS011;8703;48.996;9.594;2023-03-21T10:40:24;4.32;;;1.40;;
17175;SDS011;8703;48.996;9.594;2023-03-21T10:42:53;1.95;;;1.42;;
17175;SDS011;8703;48.996;9.594;2023-03-21T10:45:22;2.38;;;1.38;;
17175;SDS011;8703;48.996;9.594;2023-03-21T10:47:49;2.22;;;1.33;;
17175;SDS011;8703;48.996;9.594;2023-03-21T10:50:19;2.13;;;1.45;;
17175;SDS011;8703;48.996;9.594;2023-03-21T10:52:52;2.90;;;1.48;;
17175;SDS011;8703;48.996;9.594;2023-03-21T10:55:26;1.63;;;1.20;;
17175;SDS011;8703;48.996;9.594;2023-03-21T10:57:55;2.45;;;1.20;;
17175;SDS011;8703;48.996;9.594;2023-03-21T11:00:25;1.80;;;1.50;;
17175;SDS011;8703;48.996;9.594;2023-03-21T11:02:54;1.60;;;1.20;;
17175;SDS011;8703;48.996;9.594;2023-03-21T11:05:23;3.38;;;1.60;;
17175;SDS011;8703;48.996;9.594;2023-03-21T11:07:56;1.92;;;1.20;;
17175;SDS011;8703;48.996;9.594;2023-03-21T11:10:27;1.85;;;1.40;;
17175;SDS011;8703;48.996;9.594;2023-03-21T11:12:56;2.63;;;1.33;;
17175;SDS011;8703;48.996;9.594;2023-03-21T11:15:30;1.60;;;1.20;;
17175;SDS011;8703;48.996;9.594;2023-03-21T11:17:58;1.50;;;1.25;;
17175;SDS011;8703;48.996;9.594;2023-03-21T11:20:28;1.95;;;1.20;;
17175;SDS011;8703;48.996;9.594;2023-03-21T11:22:58;2.75;;;1.30;;
17175;SDS011;8703;48.996;9.594;2023-03-21T11:25:32;2.00;;;1.40;;
17175;SDS011;8703;48.996;9.594;2023-03-21T11:28:04;2.22;;;1.30;;
17175;SDS011;8703;48.996;9.594;2023-03-21T11:30:33;1.50;;;1.08;;
17175;SDS011;8703;48.996;9.594;2023-03-21T11:33:01;1.92;;;1.27;;
17175;SDS011;8703;48.996;9.594;2023-03-21T11:35:32;2.75;;;1.20;;
17175;SDS011;8703;48.996;9.594;2023-03-21T11:38:01;4.32;;;2.85;;
17175;SDS011;8703;48.996;9.594;2023-03-21T11:40:30;2.80;;;1.58;;
17175;SDS011;8703;48.996;9.594;2023-03-21T11:42:59;2.30;;;1.30;;
17175;SDS011;8703;48.996;9.594;2023-03-21T11:45:28;1.35;;;1.25;;
17175;SDS011;8703;48.996;9.594;2023-03-21T11:47:58;2.85;;;1.20;;
17175;SDS011;8703;48.996;9.594;2023-03-21T11:50:28;1.80;;;1.20;;
17175;SDS011;8703;48.996;9.594;2023-03-21T11:53:01;1.55;;;1.20;;
17175;SDS011;8703;48.996;9.594;2023-03-21T11:55:55;2.63;;;1.23;;
17175;SDS011;8703;48.996;9.594;2023-03-21T11:58:36;2.33;;;1.30;;
17175;SDS011;8703;48.996;9.594;2023-03-21T12:01:11;1.58;;;1.10;;
17175;SDS011;8703;48.996;9.594;2023-03-21T12:04:02;1.60;;;1.10;;
17175;SDS011;8703;48.996;9.594;2023-03-21T12:06:33;1.98;;;1.25;;
17175;SDS011;8703;48.996;9.594;2023-03-21T12:09:08;1.88;;;1.40;;
17175;SDS011;8703;48.996;9.594;2023-03-21T12:11:48;1.38;;;1.10;;
17175;SDS011;8703;48.996;9.594;2023-03-21T12:14:23;2.30;;;1.40;;
17175;SDS011;8703;48.996;9.594;2023-03-21T12:16:58;1.50;;;1.40;;
17175;SDS011;8703;48.996;9.594;2023-03-21T12:19:42;2.47;;;1.10;;
17175;SDS011;8703;48.996;9.594;2023-03-21T12:22:15;1.48;;;1.30;;
17175;SDS011;8703;48.996;9.594;2023-03-21T12:24:49;3.50;;;1.50;;
17175;SDS011;8703;48.996;9.594;2023-03-21T12:27:22;1.73;;;1.30;;
17175;SDS011;8703;48.996;9.594;2023-03-21T12:29:59;2.55;;;1.20;;
17175;SDS011;8703;48.996;9.594;2023-03-21T12:32:50;1.73;;;1.23;;
17175;SDS011;8703;48.996;9.594;2023-03-21T12:35:27;1.33;;;1.10;;
17175;SDS011;8703;48.996;9.594;2023-03-21T12:38:04;1.77;;;1.00;;
17175;SDS011;8703;48.996;9.594;2023-03-21T12:40:42;2.03;;;1.50;;
17175;SDS011;8703;48.996;9.594;2023-03-21T12:43:32;1.83;;;1.40;;
17175;SDS011;8703;48.996;9.594;2023-03-21T12:46:10;1.65;;;1.40;;
17175;SDS011;8703;48.996;9.594;2023-03-21T12:48:42;1.95;;;1.30;;
17175;SDS011;8703;48.996;9.594;2023-03-21T12:51:13;5.00;;;1.60;;
17175;SDS011;8703;48.996;9.594;2023-03-21T12:53:48;2.28;;;1.25;;
17175;SDS011;8703;48.996;9.594;2023-03-21T12:56:18;1.63;;;1.15;;
17175;SDS011;8703;48.996;9.594;2023-03-21T12:58:51;1.65;;;1.38;;
17175;SDS011;8703;48.996;9.594;2023-03-21T13:01:20;1.50;;;1.40;;
17175;SDS011;8703;48.996;9.594;2023-03-21T13:03:49;1.92;;;1.42;;
17175;SDS011;8703;48.996;9.594;2023-03-21T13:06:29;2.00;;;1.23;;
17175;SDS011;8703;48.996;9.594;2023-03-21T13:08:59;1.60;;;1.25;;
17175;SDS011;8703;48.996;9.594;2023-03-21T13:11:30;2.38;;;1.30;;
17175;SDS011;8703;48.996;9.594;2023-03-21T13:14:00;1.38;;;1.05;;
17175;SDS011;8703;48.996;9.594;2023-03-21T13:16:31;2.58;;;1.30;;
17175;SDS011;8703;48.996;9.594;2023-03-21T13:19:02;2.00;;;1.35;;
17175;SDS011;8703;48.996;9.594;2023-03-21T13:21:39;2.00;;;1.30;;
17175;SDS011;8703;48.996;9.594;2023-03-21T13:24:23;2.17;;;1.30;;
17175;SDS011;8703;48.996;9.594;2023-03-21T13:26:55;1.80;;;1.30;;
17175;SDS011;8703;48.996;9.594;2023-03-21T13:29:28;2.42;;;1.27;;
17175;SDS011;8703;48.996;9.594;2023-03-21T13:31:59;3.22;;;1.30;;
17175;SDS011;8703;48.996;9.594;2023-03-21T13:34:33;2.55;;;1.40;;
17175;SDS011;8703;48.996;9.594;2023-03-21T13:37:03;3.17;;;1.40;;
17175;SDS011;8703;48.996;9.594;2023-03-21T13:39:30;2.20;;;1.42;;
17175;SDS011;8703;48.996;9.594;2023-03-21T13:42:01;2.20;;;1.60;;
17175;SDS011;8703;48.996;9.594;2023-03-21T13:44:37;2.17;;;1.58;;
17175;SDS011;8703;48.996;9.594;2023-03-21T13:47:20;1.95;;;1.40;;
17175;SDS011;8703;48.996;9.594;2023-03-21T13:50:16;1.70;;;1.30;;
17175;SDS011;8703;48.996;9.594;2023-03-21T13:55:46;1.67;;;1.40;;
17175;SDS011;8703;48.996;9.594;2023-03-21T13:58:32;3.88;;;1.50;;
17175;SDS011;8703;48.996;9.594;2023-03-21T14:01:08;3.10;;;1.63;;
17175;SDS011;8703;48.996;9.594;2023-03-21T14:03:47;3.38;;;1.27;;
17175;SDS011;8703;48.996;9.594;2023-03-21T14:06:15;1.30;;;1.20;;
17175;SDS011;8703;48.996;9.594;2023-03-21T14:08:44;3.08;;;1.40;;
17175;SDS011;8703;48.996;9.594;2023-03-21T14:11:13;2.28;;;1.50;;
17175;SDS011;8703;48.996;9.594;2023-03-21T14:13:43;2.50;;;1.63;;
17175;SDS011;8703;48.996;9.594;2023-03-21T14:16:13;3.25;;;1.50;;
17175;SDS011;8703;48.996;9.594;2023-03-21T14:18:42;1.92;;;1.33;;
17175;SDS011;8703;48.996;9.594;2023-03-21T14:21:17;2.03;;;1.35;;
17175;SDS011;8703;48.996;9.594;2023-03-21T14:23:53;3.83;;;1.40;;
17175;SDS011;8703;48.996;9.594;2023-03-21T14:26:22;2.25;;;1.42;;
17175;SDS011;8703;48.996;9.594;2023-03-21T14:28:50;1.73;;;1.48;;
17175;SDS011;8703;48.996;9.594;2023-03-21T14:31:19;2.30;;;1.23;;
17175;SDS011;8703;48.996;9.594;2023-03-21T14:33:48;2.60;;;1.42;;
17175;SDS011;8703;48.996;9.594;2023-03-21T14:36:19;2.15;;;1.35;;
17175;SDS011;8703;48.996;9.594;2023-03-21T14:38:53;2.65;;;1.52;;
17175;SDS011;8703;48.996;9.594;2023-03-21T14:41:29;2.60;;;1.50;;
17175;SDS011;8703;48.996;9.594;2023-03-21T14:46:50;2.75;;;1.55;;
17175;SDS011;8703;48.996;9.594;2023-03-21T14:49:20;1.65;;;1.23;;
17175;SDS011;8703;48.996;9.594;2023-03-21T14:51:51;1.98;;;1.38;;
17175;SDS011;8703;48.996;9.594;2023-03-21T14:54:20;2.88;;;1.55;;
17175;SDS011;8703;48.996;9.594;2023-03-21T14:56:49;3.53;;;1.38;;
17175;SDS011;8703;48.996;9.594;2023-03-21T14:59:20;2.75;;;1.50;;
17175;SDS011;8703;48.996;9.594;2023-03-21T15:01:50;2.33;;;1.40;;
17175;SDS011;8703;48.996;9.594;2023-03-21T15:04:18;1.63;;;1.20;;
17175;SDS011;8703;48.996;9.594;2023-03-21T15:06:47;1.80;;;1.30;;
17175;SDS011;8703;48.996;9.594;2023-03-21T15:09:15;2.33;;;1.30;;
17175;SDS011;8703;48.996;9.594;2023-03-21T15:11:47;2.17;;;1.50;;
17175;SDS011;8703;48.996;9.594;2023-03-21T15:14:16;3.53;;;1.60;;
17175;SDS011;8703;48.996;9.594;2023-03-21T15:16:44;3.25;;;1.48;;
17175;SDS011;8703;48.996;9.594;2023-03-21T15:19:15;1.92;;;1.52;;
17175;SDS011;8703;48.996;9.594;2023-03-21T15:21:45;2.75;;;1.45;;
17175;SDS011;8703;48.996;9.594;2023-03-21T15:24:15;2.22;;;1.98;;
17175;SDS011;8703;48.996;9.594;2023-03-21T15:26:44;2.58;;;2.22;;
17175;SDS011;8703;48.996;9.594;2023-03-21T15:29:13;2.70;;;1.77;;
17175;SDS011;8703;48.996;9.594;2023-03-21T15:31:42;2.30;;;1.80;;